^^
Saratoga-Weather Station Historical Data
Daily Summary for July 19, 2020 Units:  English    Metric   Both
Daily Weekly Monthly Yearly Custom
  High: Low: Average:
Temperature: 69.8 °F 48.4 °F 59 °F
Dew Point: 54.9 °F 44.2 °F 50.9 °F
Humidity: 96% 56% 76%
Wind Speed: 8.9mph 0mph 1.7mph
Wind Gust: 13mph - -
Wind- - South
Pressure: 30 in 29.9 in -
Precipitation: 0 in    
Historical Graphs
 
 
Tabular Data for July 19, 2020
Time Temperature Dew Point Pressure Wind Wind Speed Wind Gust Humidity Rainfall Rate (Hourly) solar
00:04 55 °F 50.9 °F 30 in Calm   1 mph 86% 0 in 0 W/m2
00:09 54.9 °F 51.1 °F 30 in Calm     87% 0 in 0 W/m2
00:14 54.9 °F 51.1 °F 30 in Calm   1 mph 87% 0 in 0 W/m2
00:19 54.7 °F 50.9 °F 30 in Calm     87% 0 in 0 W/m2
00:24 54.3 °F 50.9 °F 30 in Calm   1 mph 88% 0 in 0 W/m2
00:29 54.3 °F 50.9 °F 30 in Calm   1 mph 88% 0 in 0 W/m2
00:34 54.1 °F 50.7 °F 30 in Calm     88% 0 in 0 W/m2
00:39 54 °F 50.7 °F 30 in Calm     89% 0 in 0 W/m2
00:44 53.8 °F 50.5 °F 30 in Calm     89% 0 in 0 W/m2
00:49 53.6 °F 50.4 °F 30 in West 0.9 mph 1 mph 89% 0 in 0 W/m2
00:54 53.4 °F 50.5 °F 30 in Calm     90% 0 in 0 W/m2
00:59 53.2 °F 50.4 °F 30 in Calm     90% 0 in 0 W/m2
01:04 53.2 °F 50.4 °F 30 in West 0.9 mph 2 mph 90% 0 in 0 W/m2
01:09 53.2 °F 50.4 °F 30 in Calm     90% 0 in 0 W/m2
01:14 53.1 °F 50.5 °F 30 in Calm   2 mph 91% 0 in 0 W/m2
01:19 53.1 °F 50.2 °F 30 in Calm     90% 0 in 0 W/m2
01:24 52.9 °F 50.4 °F 30 in Calm   1 mph 91% 0 in 0 W/m2
01:29 52.9 °F 50.4 °F 30 in Calm   1 mph 91% 0 in 0 W/m2
01:34 52.7 °F 50.2 °F 30 in Calm     91% 0 in 0 W/m2
01:39 52.7 °F 50.2 °F 30 in West 0.9 mph 1 mph 91% 0 in 0 W/m2
01:44 52.5 °F 50.2 °F 30 in Calm   1 mph 92% 0 in 0 W/m2
01:49 52.5 °F 50.2 °F 30 in Calm     92% 0 in 0 W/m2
01:54 52.5 °F 50.2 °F 30 in Calm   1 mph 92% 0 in 0 W/m2
01:59 52.5 °F 50.2 °F 30 in Calm   2 mph 92% 0 in 0 W/m2
02:04 52.3 °F 50 °F 30 in Calm     92% 0 in 0 W/m2
02:09 52.3 °F 50 °F 30 in Calm   2 mph 92% 0 in 0 W/m2
02:14 52.3 °F 50 °F 30 in Calm   1 mph 92% 0 in 0 W/m2
02:19 52.3 °F 50 °F 30 in West 0.9 mph 2 mph 92% 0 in 0 W/m2
02:24 52.3 °F 50.4 °F 30 in West 0.9 mph 1 mph 93% 0 in 0 W/m2
02:29 52.5 °F 50.5 °F 30 in Calm     93% 0 in 0 W/m2
02:34 52.5 °F 50.5 °F 30 in West 0.9 mph 2 mph 93% 0 in 0 W/m2
02:39 52.5 °F 50.5 °F 30 in Calm   1 mph 93% 0 in 0 W/m2
02:44 52.5 °F 50.5 °F 30 in NW 2 mph 2 mph 93% 0 in 0 W/m2
02:49 52.3 °F 50 °F 30 in Calm   1 mph 92% 0 in 0 W/m2
02:54 52.3 °F 50 °F 30 in Calm     92% 0 in 0 W/m2
02:59 52.2 °F 49.8 °F 30 in Calm     92% 0 in 0 W/m2
03:04 52 °F 49.6 °F 30 in NW 0.9 mph 2 mph 92% 0 in 0 W/m2
03:09 51.8 °F 49.6 °F 30 in Calm   1 mph 92% 0 in 0 W/m2
03:14 51.6 °F 49.5 °F 30 in Calm   1 mph 92% 0 in 0 W/m2
03:19 51.6 °F 49.5 °F 30 in Calm   2 mph 92% 0 in 0 W/m2
03:24 51.4 °F 49.3 °F 30 in Calm   1 mph 92% 0 in 0 W/m2
03:29 51.4 °F 49.3 °F 30 in SW 0.9 mph 2 mph 92% 0 in 0 W/m2
03:34 51.4 °F 49.3 °F 30 in Calm     92% 0 in 0 W/m2
03:39 51.4 °F 49.3 °F 30 in Calm   2 mph 92% 0 in 0 W/m2
03:44 51.4 °F 49.3 °F 30 in Calm     92% 0 in 0 W/m2
03:49 51.3 °F 49.1 °F 30 in Calm     92% 0 in 0 W/m2
03:54 51.1 °F 48.9 °F 30 in Calm     92% 0 in 0 W/m2
03:59 50.9 °F 48.7 °F 30 in Calm     92% 0 in 0 W/m2
04:04 50.7 °F 48.6 °F 30 in Calm     92% 0 in 0 W/m2
04:09 50.5 °F 48.4 °F 30 in Calm     92% 0 in 0 W/m2
04:14 50.4 °F 48.2 °F 30 in Calm     92% 0 in 0 W/m2
04:19 50.2 °F 48 °F 30 in Calm     92% 0 in 0 W/m2
04:24 50 °F 47.8 °F 30 in Calm   1 mph 92% 0 in 0 W/m2
04:29 49.8 °F 47.7 °F 30 in Calm     92% 0 in 0 W/m2
04:34 49.6 °F 47.5 °F 30 in Calm   1 mph 92% 0 in 0 W/m2
04:39 49.6 °F 47.7 °F 30 in Calm     93% 0 in 0 W/m2
04:44 49.5 °F 47.5 °F 30 in Calm     93% 0 in 0 W/m2
04:49 49.3 °F 47.3 °F 30 in Calm     93% 0 in 0 W/m2
04:54 49.3 °F 47.3 °F 30 in Calm     93% 0 in 0 W/m2
04:59 48.9 °F 46.9 °F 30 in Calm     93% 0 in 0 W/m2
05:04 48.9 °F 46.9 °F 30 in Calm     93% 0 in 0 W/m2
05:09 48.9 °F 47.3 °F 30 in Calm   1 mph 94% 0 in 0 W/m2
05:14 48.9 °F 47.3 °F 30 in SW 0.9 mph 1 mph 94% 0 in 0 W/m2
05:19 48.7 °F 46.8 °F 30 in West 0.9 mph 2 mph 93% 0 in 0 W/m2
05:24 48.7 °F 47.1 °F 30 in West 2 mph 2 mph 94% 0 in 0 W/m2
05:29 48.7 °F 47.1 °F 30 in Calm     94% 0 in 0 W/m2
05:35 48.7 °F 47.1 °F 30 in Calm   2 mph 94% 0 in 0 W/m2
05:40 48.6 °F 46.9 °F 30 in Calm     94% 0 in 0 W/m2
05:45 48.6 °F 46.9 °F 30 in Calm     94% 0 in 0 W/m2
05:50 48.7 °F 47.1 °F 30 in Calm     94% 0 in 0 W/m2
05:55 48.7 °F 47.3 °F 30 in Calm   1 mph 95% 0 in 0 W/m2
06:00 48.9 °F 47.5 °F 30 in Calm     95% 0 in 0 W/m2
06:05 48.9 °F 47.5 °F 30 in Calm     95% 0 in 0 W/m2
06:10 48.7 °F 47.3 °F 30 in Calm     95% 0 in 0 W/m2
06:15 48.7 °F 47.3 °F 30 in Calm     95% 0 in 0 W/m2
06:20 48.7 °F 47.3 °F 30 in Calm     95% 0 in 0 W/m2
06:25 48.6 °F 47.1 °F 30 in Calm     95% 0 in 0 W/m2
06:30 48.6 °F 46.9 °F 30 in Calm     94% 0 in 0 W/m2
06:35 48.4 °F 46.8 °F 30 in Calm     94% 0 in 0 W/m2
06:40 48.4 °F 46.9 °F 30 in Calm     95% 0 in 5 W/m2
06:45 48.6 °F 47.1 °F 30 in Calm     95% 0 in 9 W/m2
06:50 48.9 °F 47.8 °F 30 in NW 0.9 mph 1 mph 96% 0 in 12 W/m2
06:55 49.3 °F 48.2 °F 30 in NW 0.9 mph 1 mph 96% 0 in 16 W/m2
07:00 49.5 °F 48.4 °F 30 in Calm   2 mph 96% 0 in 25 W/m2
07:05 49.6 °F 48.6 °F 30 in NW 0.9 mph 1 mph 96% 0 in 23 W/m2
07:11 50.2 °F 49.1 °F 30 in South 0.9 mph 2 mph 96% 0 in 23 W/m2
07:16 50.4 °F 49.3 °F 30 in Calm     96% 0 in 23 W/m2
07:21 50.4 °F 49.3 °F 30 in WSW 2 mph 2 mph 96% 0 in 28 W/m2
07:26 50.7 °F 49.6 °F 30 in West 0.9 mph 1 mph 96% 0 in 47 W/m2
07:31 50.9 °F 49.8 °F 30 in Calm   2 mph 96% 0 in 47 W/m2
07:36 51.1 °F 50 °F 30 in Calm   1 mph 96% 0 in 63 W/m2
07:41 51.3 °F 49.8 °F 30 in NNW 0.9 mph 1 mph 95% 0 in 56 W/m2
07:46 51.4 °F 50 °F 30 in Calm   2 mph 95% 0 in 76 W/m2
07:51 51.4 °F 50 °F 30 in NNW 0.9 mph 1 mph 95% 0 in 165 W/m2
07:56 51.8 °F 50.4 °F 30 in Calm     95% 0 in 95 W/m2
08:01 52 °F 50.5 °F 30 in NW 0.9 mph 2 mph 95% 0 in 132 W/m2
08:06 52.2 °F 50.7 °F 30 in West 0.9 mph 2 mph 95% 0 in 107 W/m2
08:11 52.3 °F 50.9 °F 30 in Calm   2 mph 95% 0 in 107 W/m2
08:16 52.5 °F 51.1 °F 30 in NNW 2.9 mph 3 mph 95% 0 in 105 W/m2
08:21 52.9 °F 51.3 °F 30 in NW 0.9 mph 1 mph 94% 0 in 102 W/m2
08:26 53.1 °F 51.4 °F 30 in NW 0.9 mph 1 mph 94% 0 in 114 W/m2
08:31 53.2 °F 51.6 °F 30 in NW 0.9 mph 1 mph 94% 0 in 127 W/m2
08:36 53.6 °F 52 °F 30 in WNW 0.9 mph 3 mph 94% 0 in 160 W/m2
08:41 54 °F 52 °F 30 in Calm   1 mph 93% 0 in 153 W/m2
08:46 54.1 °F 52.2 °F 30 in NW 0.9 mph 3 mph 93% 0 in 172 W/m2
08:51 54.3 °F 52.3 °F 30 in Calm   2 mph 93% 0 in 155 W/m2
08:56 54.7 °F 52.3 °F 30 in Calm   3 mph 92% 0 in 156 W/m2
09:01 55 °F 52.7 °F 30 in Calm   2 mph 92% 0 in 171 W/m2
09:06 55.2 °F 52.9 °F 30 in WNW 0.9 mph 2 mph 92% 0 in 188 W/m2
09:11 55.6 °F 53.1 °F 30 in NW 0.9 mph 2 mph 91% 0 in 188 W/m2
09:16 55.9 °F 53.1 °F 30 in NW 2.9 mph 8 mph 90% 0 in 287 W/m2
09:21 55.9 °F 52.7 °F 30 in West 4 mph 10 mph 89% 0 in 265 W/m2
09:26 55.8 °F 52.5 °F 30 in WNW 4 mph 4 mph 89% 0 in 206 W/m2
09:31 55.6 °F 52.3 °F 30 in WNW 0.9 mph 10 mph 89% 0 in 257 W/m2
09:36 55.8 °F 52.5 °F 30 in NNW 2.9 mph 3 mph 89% 0 in 410 W/m2
09:41 55.9 °F 52.5 °F 30 in NNW 2.9 mph 6 mph 88% 0 in 355 W/m2
09:46 55.9 °F 52.5 °F 30 in West 2 mph 8 mph 88% 0 in 223 W/m2
09:51 55.9 °F 52.2 °F 30 in ENE 2 mph 3 mph 87% 0 in 192 W/m2
09:56 55.9 °F 52.2 °F 30 in NNW 0.9 mph 3 mph 87% 0 in 287 W/m2
10:01 55.9 °F 52.2 °F 30 in NE 2 mph 2 mph 87% 0 in 255 W/m2
10:06 56.1 °F 52.3 °F 30 in NE 0.9 mph 3 mph 87% 0 in 301 W/m2
10:11 56.3 °F 52.5 °F 30 in NW 0.9 mph 2 mph 87% 0 in 299 W/m2
10:16 56.5 °F 52.3 °F 30 in NW 0.9 mph 1 mph 86% 0 in 171 W/m2
10:21 56.8 °F 52.7 °F 30 in NW 0.9 mph 2 mph 86% 0 in 251 W/m2
10:26 57.4 °F 52.9 °F 30 in West 2 mph 3 mph 85% 0 in 529 W/m2
10:31 57.9 °F 53.4 °F 30 in WNW 2 mph 2 mph 85% 0 in 527 W/m2
10:36 58.8 °F 53.6 °F 30 in NNW 2 mph 2 mph 83% 0 in 543 W/m2
10:41 59.5 °F 53.1 °F 30 in NNW 0.9 mph 7 mph 79% 0 in 552 W/m2
10:47 60.1 °F 53.6 °F 30 in Calm   3 mph 79% 0 in 557 W/m2
10:52 61 °F 53.8 °F 30 in North 2.9 mph 7 mph 77% 0 in 563 W/m2
10:57 61.3 °F 53.8 °F 30 in ESE 2.9 mph 4 mph 76% 0 in 584 W/m2
11:02 61.5 °F 53.6 °F 30 in North 2 mph 2 mph 75% 0 in 582 W/m2
11:07 61.9 °F 53.8 °F 30 in West 2.9 mph 5 mph 75% 0 in 596 W/m2
11:12 62.4 °F 54 °F 30 in ENE 0.9 mph 4 mph 74% 0 in 615 W/m2
11:17 62.4 °F 53.6 °F 30 in East 2.9 mph 5 mph 73% 0 in 622 W/m2
11:23 62.2 °F 53.8 °F 30 in ESE 2 mph 5 mph 74% 0 in 613 W/m2
11:28 62.6 °F 53.8 °F 30 in NE 0.9 mph 3 mph 73% 0 in 619 W/m2
11:33 62.8 °F 54 °F 30 in ESE 2 mph 4 mph 73% 0 in 636 W/m2
11:38 63.1 °F 54 °F 30 in WNW 2 mph 4 mph 72% 0 in 643 W/m2
11:43 63.3 °F 53.8 °F 30 in East 4 mph 4 mph 71% 0 in 652 W/m2
11:48 63.7 °F 54.5 °F 30 in ENE 0.9 mph 3 mph 72% 0 in 661 W/m2
11:53 64 °F 54.1 °F 30 in NNW 2 mph 4 mph 70% 0 in 670 W/m2
11:58 64.2 °F 54.7 °F 30 in ENE 2.9 mph 4 mph 71% 0 in 666 W/m2
12:03 64.2 °F 53.8 °F 30 in NE 2 mph 5 mph 69% 0 in 675 W/m2
12:08 64.2 °F 53.8 °F 30 in NNW 0.9 mph 4 mph 69% 0 in 684 W/m2
12:13 64.4 °F 53.6 °F 30 in Calm   4 mph 68% 0 in 705 W/m2
12:18 64.8 °F 54 °F 30 in ENE 2.9 mph 4 mph 68% 0 in 701 W/m2
12:23 65.1 °F 53.4 °F 30 in NNE 2 mph 5 mph 66% 0 in 735 W/m2
12:28 65.5 °F 54.7 °F 29.9 in NE 4.9 mph 5 mph 68% 0 in 735 W/m2
12:33 65.7 °F 53.6 °F 29.9 in ENE 2 mph 4 mph 65% 0 in 731 W/m2
12:38 65.7 °F 53.2 °F 29.9 in East 4.9 mph 6 mph 64% 0 in 724 W/m2
12:43 65.8 °F 53.8 °F 29.9 in ENE 2 mph 5 mph 65% 0 in 768 W/m2
12:48 66.2 °F 53.6 °F 29.9 in ESE 2.9 mph 8 mph 64% 0 in 807 W/m2
12:53 66.6 °F 53.1 °F 29.9 in WNW 2 mph 5 mph 62% 0 in 842 W/m2
12:58 66.6 °F 52.7 °F 29.9 in ENE 2 mph 8 mph 61% 0 in 260 W/m2
13:03 66.4 °F 52.9 °F 29.9 in NNE 2.9 mph 4 mph 62% 0 in 287 W/m2
13:08 65.8 °F 52.5 °F 29.9 in NNW 2 mph 2 mph 62% 0 in 269 W/m2
13:13 65.7 °F 52.7 °F 29.9 in NNW 2 mph 4 mph 63% 0 in 271 W/m2
13:18 65.7 °F 52.7 °F 29.9 in WSW 4.9 mph 5 mph 63% 0 in 211 W/m2
13:23 65.1 °F 52.7 °F 29.9 in WNW 0.9 mph 3 mph 64% 0 in 812 W/m2
13:28 65.1 °F 52.7 °F 29.9 in Calm   5 mph 64% 0 in 163 W/m2
13:33 65.3 °F 52.9 °F 29.9 in Calm   3 mph 64% 0 in 824 W/m2
13:38 66 °F 53.4 °F 29.9 in NE 2.9 mph 5 mph 64% 0 in 865 W/m2
13:43 66.9 °F 53.1 °F 29.9 in East 2 mph 4 mph 61% 0 in 914 W/m2
13:48 67.5 °F 52.7 °F 29.9 in East 2.9 mph 3 mph 59% 0 in 921 W/m2
13:53 67.5 °F 52.7 °F 29.9 in West 2 mph 2 mph 59% 0 in 315 W/m2
13:58 67.3 °F 52.9 °F 29.9 in NW 2.9 mph 3 mph 60% 0 in 919 W/m2
14:03 67.1 °F 52.7 °F 29.9 in ENE 0.9 mph 7 mph 60% 0 in 853 W/m2
14:08 67.5 °F 53.6 °F 29.9 in East 4 mph 6 mph 61% 0 in 874 W/m2
14:14 68 °F 52.7 °F 29.9 in ESE 0.9 mph 4 mph 58% 0 in 842 W/m2
14:19 68.4 °F 53.4 °F 29.9 in Calm   6 mph 59% 0 in 805 W/m2
14:24 68.9 °F 54 °F 29.9 in NE 2 mph 4 mph 59% 0 in 812 W/m2
14:29 69.4 °F 54 °F 29.9 in NE 0.9 mph 3 mph 58% 0 in 803 W/m2
14:34 69.8 °F 54 °F 29.9 in East 2.9 mph 3 mph 57% 0 in 315 W/m2
14:39 69.6 °F 53.2 °F 29.9 in ENE 2.9 mph 9 mph 56% 0 in 847 W/m2
14:44 69.6 °F 53.2 °F 29.9 in WNW 0.9 mph 5 mph 56% 0 in 246 W/m2
14:49 69.4 °F 53.6 °F 29.9 in NW 2 mph 8 mph 57% 0 in 204 W/m2
14:54 68.7 °F 52.9 °F 29.9 in East 2.9 mph 4 mph 57% 0 in 167 W/m2
15:00 68.4 °F 53.1 °F 29.9 in ESE 2 mph 4 mph 58% 0 in 165 W/m2
15:05 67.8 °F 52.5 °F 29.9 in East 2.9 mph 4 mph 58% 0 in 186 W/m2
15:10 67.5 °F 52.7 °F 29.9 in North 4 mph 5 mph 59% 0 in 227 W/m2
15:15 67.3 °F 52.9 °F 29.9 in NNW 6 mph 6 mph 60% 0 in 229 W/m2
15:20 67.6 °F 52.9 °F 29.9 in NE 2 mph 2 mph 59% 0 in 793 W/m2
15:25 68.5 °F 53.2 °F 29.9 in WNW 4.9 mph 5 mph 58% 0 in 248 W/m2
15:30 68.5 °F 53.6 °F 29.9 in WSW 2 mph 3 mph 59% 0 in 290 W/m2
15:35 68.4 °F 53.4 °F 29.9 in SSW 0.9 mph 6 mph 59% 0 in 200 W/m2
15:40 68.2 °F 53.2 °F 29.9 in NW 0.9 mph 6 mph 59% 0 in 199 W/m2
15:45 67.8 °F 53.4 °F 29.9 in North 2 mph 5 mph 60% 0 in 216 W/m2
15:50 67.6 °F 53.2 °F 29.9 in ENE 4 mph 6 mph 60% 0 in 204 W/m2
15:55 67.6 °F 53.8 °F 29.9 in WNW 4 mph 8 mph 61% 0 in 199 W/m2
16:00 67.3 °F 53.8 °F 29.9 in ENE 2 mph 6 mph 62% 0 in 223 W/m2
16:05 67.1 °F 53.6 °F 29.9 in ESE 2.9 mph 6 mph 62% 0 in 234 W/m2
16:10 66.9 °F 53.4 °F 29.9 in East 2.9 mph 7 mph 62% 0 in 264 W/m2
16:16 67.5 °F 54.5 °F 29.9 in ESE 2.9 mph 6 mph 63% 0 in 635 W/m2
16:21 67.8 °F 54 °F 29.9 in NE 2 mph 5 mph 61% 0 in 213 W/m2
16:26 68.2 °F 54.1 °F 29.9 in WSW 0.9 mph 8 mph 61% 0 in 563 W/m2
16:31 68.4 °F 54.9 °F 29.9 in ESE 2 mph 9 mph 62% 0 in 540 W/m2
16:36 68.4 °F 54.3 °F 29.9 in ESE 6 mph 10 mph 61% 0 in 457 W/m2
16:41 68.4 °F 54.3 °F 29.9 in NE 4 mph 8 mph 61% 0 in 522 W/m2
16:46 68.5 °F 54.1 °F 29.9 in SSW 4 mph 6 mph 60% 0 in 506 W/m2
16:51 68.4 °F 54.3 °F 29.9 in NE 8.9 mph 9 mph 61% 0 in 499 W/m2
16:56 67.6 °F 53.2 °F 29.9 in ESE 4 mph 11 mph 60% 0 in 408 W/m2
17:01 66.7 °F 52.9 °F 29.9 in SE 2 mph 7 mph 61% 0 in 116 W/m2
17:06 66.7 °F 53.8 °F 29.9 in SW 2.9 mph 4 mph 63% 0 in 446 W/m2
17:11 66.9 °F 53.4 °F 29.9 in NNW 2 mph 7 mph 62% 0 in 425 W/m2
17:16 67.5 °F 54 °F 29.9 in North 2 mph 6 mph 62% 0 in 418 W/m2
17:21 68 °F 54 °F 29.9 in NNE 2.9 mph 3 mph 61% 0 in 413 W/m2
17:26 68.2 °F 53.8 °F 29.9 in SW 2 mph 8 mph 60% 0 in 388 W/m2
17:31 68.2 °F 54.1 °F 29.9 in NNE 2.9 mph 7 mph 61% 0 in 373 W/m2
17:36 68.2 °F 54.1 °F 29.9 in SW 0.9 mph 4 mph 61% 0 in 341 W/m2
17:41 68.5 °F 54.1 °F 29.9 in East 8.9 mph 10 mph 60% 0 in 332 W/m2
17:46 68.2 °F 53.8 °F 29.9 in ENE 2.9 mph 4 mph 60% 0 in 339 W/m2
17:51 67.8 °F 54 °F 29.9 in SSE 4 mph 8 mph 61% 0 in 327 W/m2
17:56 67.6 °F 53.2 °F 29.9 in ENE 6.9 mph 7 mph 60% 0 in 153 W/m2
18:01 67.5 °F 53.6 °F 29.9 in NW 2.9 mph 6 mph 61% 0 in 346 W/m2
18:06 67.6 °F 53.8 °F 29.9 in NNW 2 mph 5 mph 61% 0 in 176 W/m2
18:11 67.6 °F 53.2 °F 29.9 in NW 4 mph 8 mph 60% 0 in 283 W/m2
18:16 67.5 °F 54 °F 29.9 in North 2 mph 2 mph 62% 0 in 239 W/m2
18:21 67.6 °F 53.2 °F 29.9 in East 6.9 mph 9 mph 60% 0 in 225 W/m2
18:26 67.3 °F 53.4 °F 29.9 in NE 6 mph 7 mph 61% 0 in 239 W/m2
18:31 66.9 °F 53.4 °F 29.9 in Calm   3 mph 62% 0 in 223 W/m2
18:36 67.1 °F 53.6 °F 29.9 in North 4 mph 8 mph 62% 0 in 200 W/m2
18:41 67.1 °F 53.2 °F 29.9 in NNW 0.9 mph 4 mph 61% 0 in 142 W/m2
18:47 67.1 °F 53.2 °F 29.9 in West 0.9 mph 5 mph 61% 0 in 165 W/m2
18:52 66.9 °F 53.1 °F 29.9 in NW 2.9 mph 8 mph 61% 0 in 155 W/m2
18:57 66.9 °F 53.1 °F 29.9 in NW 0.9 mph 3 mph 61% 0 in 137 W/m2
19:02 66.9 °F 53.1 °F 29.9 in SSW 0.9 mph 5 mph 61% 0 in 144 W/m2
19:07 66.7 °F 52.9 °F 29.9 in WNW 4 mph 8 mph 61% 0 in 137 W/m2
19:12 66.7 °F 52.9 °F 29.9 in NNE 2 mph 3 mph 61% 0 in 120 W/m2
19:17 66.4 °F 52.5 °F 29.9 in Calm   3 mph 61% 0 in 114 W/m2
19:22 66.4 °F 52.5 °F 29.9 in WNW 2.9 mph 8 mph 61% 0 in 100 W/m2
19:27 66 °F 52.2 °F 29.9 in NNE 2.9 mph 5 mph 61% 0 in 97 W/m2
19:32 65.8 °F 52 °F 29.9 in NNE 2.9 mph 5 mph 61% 0 in 65 W/m2
19:37 65.3 °F 52 °F 29.9 in WNW 2.9 mph 11 mph 62% 0 in 58 W/m2
19:42 64.9 °F 52 °F 29.9 in South 2 mph 5 mph 63% 0 in 54 W/m2
19:47 64.6 °F 52.2 °F 29.9 in ENE 4 mph 11 mph 64% 0 in 40 W/m2
19:52 64.2 °F 51.8 °F 29.9 in North 2 mph 6 mph 64% 0 in 35 W/m2
19:57 63.9 °F 51.8 °F 29.9 in NW 2.9 mph 3 mph 65% 0 in 30 W/m2
20:02 63.7 °F 52.2 °F 29.9 in SE 0.9 mph 3 mph 66% 0 in 21 W/m2
20:07 63.3 °F 51.8 °F 29.9 in Calm   2 mph 66% 0 in 14 W/m2
20:12 63.1 °F 52 °F 29.9 in NNE 2 mph 6 mph 67% 0 in 12 W/m2
20:17 63.1 °F 51.6 °F 29.9 in SE 4 mph 9 mph 66% 0 in 11 W/m2
20:22 63 °F 51.1 °F 29.9 in ESE 2.9 mph 4 mph 65% 0 in 9 W/m2
20:27 63 °F 51.4 °F 29.9 in East 2.9 mph 5 mph 66% 0 in 7 W/m2
20:32 62.8 °F 51.3 °F 29.9 in East 4 mph 4 mph 66% 0 in 5 W/m2
20:37 62.6 °F 51.1 °F 29.9 in SE 4 mph 9 mph 66% 0 in 0 W/m2
20:42 62.4 °F 50.9 °F 29.9 in ENE 2.9 mph 8 mph 66% 0 in 0 W/m2
20:47 62.2 °F 50.7 °F 29.9 in ENE 6.9 mph 12 mph 66% 0 in 0 W/m2
20:52 62.1 °F 50.9 °F 29.9 in ESE 2 mph 7 mph 67% 0 in 0 W/m2
20:57 62.1 °F 50.9 °F 29.9 in East 2 mph 12 mph 67% 0 in 0 W/m2
21:02 61.9 °F 50.4 °F 29.9 in SE 2.9 mph 5 mph 66% 0 in 0 W/m2
21:07 61.7 °F 50.2 °F 29.9 in NNE 2 mph 12 mph 66% 0 in 0 W/m2
21:12 61.5 °F 50 °F 29.9 in ESE 6.9 mph 7 mph 66% 0 in 0 W/m2
21:17 61.3 °F 49.8 °F 29.9 in ENE 0.9 mph 12 mph 66% 0 in 0 W/m2
21:22 61.2 °F 49.6 °F 29.9 in ENE 2 mph 5 mph 66% 0 in 0 W/m2
21:28 61 °F 50 °F 29.9 in ENE 2.9 mph 9 mph 67% 0 in 0 W/m2
21:33 61 °F 50 °F 29.9 in East 2 mph 6 mph 67% 0 in 0 W/m2
21:38 60.6 °F 49.6 °F 29.9 in ESE 2 mph 7 mph 67% 0 in 0 W/m2
21:43 60.6 °F 49.3 °F 29.9 in ESE 2.9 mph 5 mph 66% 0 in 0 W/m2
21:48 60.4 °F 49.1 °F 29.9 in East 4 mph 4 mph 66% 0 in 0 W/m2
21:53 60.1 °F 48.7 °F 29.9 in ESE 2.9 mph 9 mph 66% 0 in 0 W/m2
21:58 60.1 °F 48.7 °F 29.9 in East 8.9 mph 9 mph 66% 0 in 0 W/m2
22:03 60.1 °F 48.7 °F 29.9 in ESE 4 mph 4 mph 66% 0 in 0 W/m2
22:08 59.7 °F 48.7 °F 29.9 in ENE 2 mph 9 mph 67% 0 in 0 W/m2
22:13 59.7 °F 48.4 °F 29.9 in SE 0.9 mph 4 mph 66% 0 in 0 W/m2
22:18 59.5 °F 47.8 °F 29.9 in ESE 8.9 mph 9 mph 65% 0 in 0 W/m2
22:23 59.5 °F 47.8 °F 29.9 in East 4 mph 8 mph 65% 0 in 0 W/m2
22:28 59.4 °F 47.7 °F 29.9 in NE 2 mph 4 mph 65% 0 in 0 W/m2
22:33 59.4 °F 47.7 °F 29.9 in ESE 0.9 mph 7 mph 65% 0 in 0 W/m2
22:38 59.2 °F 46.9 °F 29.9 in NE 2.9 mph 12 mph 64% 0 in 0 W/m2
22:43 58.8 °F 46.2 °F 29.9 in NE 2 mph 13 mph 63% 0 in 0 W/m2
22:48 58.8 °F 46.2 °F 29.9 in SE 2 mph 10 mph 63% 0 in 0 W/m2
22:53 58.6 °F 46.6 °F 29.9 in ENE 2 mph 5 mph 64% 0 in 0 W/m2
22:58 58.5 °F 46.4 °F 29.9 in East 4 mph 7 mph 64% 0 in 0 W/m2
23:03 58.3 °F 46.6 °F 29.9 in SSE 0.9 mph 5 mph 65% 0 in 0 W/m2
23:08 58.1 °F 46 °F 29.9 in East 2 mph 5 mph 64% 0 in 0 W/m2
23:14 57.7 °F 45.7 °F 29.9 in SE 2.9 mph 7 mph 64% 0 in 0 W/m2
23:19 57.7 °F 45.7 °F 29.9 in East 2.9 mph 6 mph 64% 0 in 0 W/m2
23:24 57.6 °F 45.5 °F 29.9 in SE 2.9 mph 7 mph 64% 0 in 0 W/m2
23:29 57.4 °F 45.3 °F 29.9 in ESE 2 mph 5 mph 64% 0 in 0 W/m2
23:34 57 °F 45 °F 29.9 in ESE 2.9 mph 7 mph 64% 0 in 0 W/m2
23:39 56.8 °F 44.8 °F 29.9 in SSE 2 mph 4 mph 64% 0 in 0 W/m2
23:44 56.8 °F 44.8 °F 29.9 in ESE 2 mph 4 mph 64% 0 in 0 W/m2
23:49 56.7 °F 44.2 °F 29.9 in SE 2.9 mph 12 mph 63% 0 in 0 W/m2
23:54 56.7 °F 44.6 °F 29.9 in ESE 2 mph 2 mph 64% 0 in 0 W/m2
23:59 56.5 °F 44.4 °F 29.9 in SE 4.9 mph 12 mph 64% 0 in 0 W/m2
Juneau County Weather
Compliments of Weather Underground - 4 mb